aviador You're here:

PACZ Decoded Metar

CAPE ROMANZOF in AK, USA
Report Time2018-01-19 10:55:00
UTC Time2018-01-19 11:12:14
Flight Rules lifr LIFR
Wind050° at 39 kt
W.Decomp.*RWY 02: 37.3 kt HW 11.4 kt RCW
W.Rank050° ranks 3
Current wind is above 050° avg. (15.5)
Visibility9999 m
Phenomena:Light Shower Snow
Clouds:Broken 003 Hf
Expected CloudBase > 800 ft AGL from Temp-Dew spread
Ceiling300 ft
Temp-14°C (ISA -28)
Dew Point-16°C (85% RH)
AAT-31.5°C
QNH1013 hPa
Density Alt-3,031 ft
Elevation479 ft
Report Wrong Elevation
Raw Report
PACZ 191055Z AUTO 05039KT 7SM -SHSN BKN003 M14/M16 A2990=

Extra information for PACZ:More info

Metar Taf Metar & Taf Last 4 Metars F.Rules Stats Wind Profile Meteogram Temp Stats Airport Information Weather charts Add Link Nearby VenuesMetar ALERT Operation Metar Decoded Social comments

AIRNAV info for PACZ